Time;durP1;ratioP1;P1;durP2;ratioP2;P2;SDS_P1;SDS_P2;PMS_P1;PMS_P2;Temp;Humidity;BMP_temperature;BMP_pressure;BME280_temperature;BME280_humidity;BME280_pressure;Samples;Min_cycle;Max_cycle;Signal;HPM_P1;HPM_P2
2021/11/21 00:01:29;;;;;;;9.25;5.13;;;;;;;;;;5034773;28;20045;-37
2021/11/21 00:03:55;;;;;;;11.05;4.65;;;;;;;;;;5052944;28;20040;-36
2021/11/21 00:06:21;;;;;;;6.32;3.70;;;;;;;;;;5052796;28;20021;-36
2021/11/21 00:08:47;;;;;;;5.45;3.55;;;;;;;;;;5052414;28;20119;-36
2021/11/21 00:11:13;;;;;;;8.02;4.65;;;;;;;;;;5052869;28;20105;-37
2021/11/21 00:13:38;;;;;;;8.52;5.18;;;;;;;;;;5052824;28;20032;-36
2021/11/21 00:16:06;;;;;;;8.68;4.35;;;;;;;;;;5052342;28;20371;-36
2021/11/21 00:18:32;;;;;;;13.18;6.07;;;;;;;;;;5052489;28;20037;-36
2021/11/21 00:20:57;;;;;;;7.43;3.63;;;;;;;;;;5051145;28;20028;-36
2021/11/21 00:23:23;;;;;;;9.75;4.53;;;;;;;;;;5052595;28;20032;-36
2021/11/21 00:25:49;;;;;;;6.70;4.45;;;;;;;;;;5052493;28;20025;-36
2021/11/21 00:28:14;;;;;;;8.40;5.07;;;;;;;;;;5052284;28;20399;-36
2021/11/21 00:30:40;;;;;;;7.43;4.10;;;;;;;;;;5052220;28;20024;-36
2021/11/21 00:33:05;;;;;;;8.10;4.72;;;;;;;;;;5052391;28;20474;-36
2021/11/21 00:35:31;;;;;;;10.70;6.00;;;;;;;;;;5051245;28;20029;-36
2021/11/21 00:37:58;;;;;;;10.90;5.35;;;;;;;;;;5052392;28;20037;-36
2021/11/21 00:40:24;;;;;;;7.47;4.28;;;;;;;;;;5052062;28;20449;-36
2021/11/21 00:42:50;;;;;;;10.00;5.20;;;;;;;;;;5052057;28;20029;-36
2021/11/21 00:45:16;;;;;;;9.25;4.60;;;;;;;;;;5051886;28;20021;-36
2021/11/21 00:47:41;;;;;;;10.48;5.30;;;;;;;;;;5051944;28;20032;-36
2021/11/21 00:50:08;;;;;;;6.00;3.50;;;;;;;;;;5051907;28;20033;-36
2021/11/21 00:52:35;;;;;;;10.65;4.05;;;;;;;;;;5051602;28;20076;-36
2021/11/21 00:55:16;;;;;;;7.43;4.10;;;;;;;;;;5051889;28;20094;-36
2021/11/21 00:57:42;;;;;;;11.05;5.25;;;;;;;;;;5051666;28;20029;-36
2021/11/21 01:00:11;;;;;;;9.50;4.80;;;;;;;;;;5051505;28;20511;-36
2021/11/21 01:02:40;;;;;;;8.95;4.38;;;;;;;;;;5033778;28;20037;-36
2021/11/21 01:05:06;;;;;;;10.65;5.40;;;;;;;;;;5051705;28;20041;-36
2021/11/21 01:07:36;;;;;;;9.63;4.60;;;;;;;;;;5051531;28;20033;-36
2021/11/21 01:10:02;;;;;;;6.43;3.58;;;;;;;;;;5051824;28;20033;-36
2021/11/21 01:12:27;;;;;;;7.32;4.18;;;;;;;;;;5051466;28;20376;-36
2021/11/21 01:14:53;;;;;;;6.78;4.47;;;;;;;;;;5051377;28;20036;-36
2021/11/21 01:17:19;;;;;;;10.13;5.13;;;;;;;;;;5051572;28;20115;-36
2021/11/21 01:19:44;;;;;;;12.18;5.53;;;;;;;;;;5051360;28;20023;-36
2021/11/21 01:22:10;;;;;;;8.00;4.57;;;;;;;;;;5051576;28;20415;-36
2021/11/21 01:24:36;;;;;;;9.68;4.30;;;;;;;;;;5051510;28;20511;-36
2021/11/21 01:27:01;;;;;;;6.85;4.22;;;;;;;;;;5051256;28;20037;-36
2021/11/21 01:29:27;;;;;;;8.57;4.47;;;;;;;;;;5051349;28;20025;-36
2021/11/21 01:31:52;;;;;;;9.43;4.38;;;;;;;;;;5051164;28;20037;-36
2021/11/21 01:34:18;;;;;;;12.02;5.60;;;;;;;;;;5051202;28;20077;-35
2021/11/21 01:36:44;;;;;;;12.57;4.93;;;;;;;;;;5051377;28;20537;-36
2021/11/21 01:39:10;;;;;;;9.00;4.68;;;;;;;;;;5051228;28;20530;-38
2021/11/21 01:41:36;;;;;;;10.52;5.15;;;;;;;;;;5050990;28;20036;-38
2021/11/21 01:44:02;;;;;;;8.65;5.25;;;;;;;;;;5051167;28;20047;-35
2021/11/21 01:46:34;;;;;;;5.50;3.75;;;;;;;;;;5053288;28;20032;-36
2021/11/21 01:48:59;;;;;;;7.10;4.85;;;;;;;;;;5055288;28;20398;-36
2021/11/21 01:51:25;;;;;;;13.48;4.38;;;;;;;;;;5055631;28;20112;-36
2021/11/21 01:53:50;;;;;;;9.82;4.95;;;;;;;;;;5055111;28;20399;-36
2021/11/21 01:56:16;;;;;;;9.35;4.40;;;;;;;;;;5053918;28;20040;-35
2021/11/21 01:58:42;;;;;;;6.60;4.85;;;;;;;;;;5054941;28;20120;-37
2021/11/21 02:01:07;;;;;;;9.65;4.72;;;;;;;;;;5055033;28;20045;-36
2021/11/21 02:03:33;;;;;;;11.18;4.43;;;;;;;;;;5037066;28;20543;-36
2021/11/21 02:06:00;;;;;;;8.98;4.03;;;;;;;;;;5054958;28;20044;-36
2021/11/21 02:08:26;;;;;;;7.25;3.72;;;;;;;;;;5054997;28;20040;-36
2021/11/21 02:10:57;;;;;;;7.00;4.72;;;;;;;;;;5054697;28;20025;-36
2021/11/21 02:13:22;;;;;;;13.98;4.78;;;;;;;;;;5055172;28;20045;-36
2021/11/21 02:15:48;;;;;;;8.10;4.82;;;;;;;;;;5054935;28;20021;-35
2021/11/21 02:18:13;;;;;;;8.27;4.72;;;;;;;;;;5054772;28;20390;-36
2021/11/21 02:20:39;;;;;;;12.85;4.90;;;;;;;;;;5054975;28;20033;-36
2021/11/21 02:23:05;;;;;;;10.48;4.85;;;;;;;;;;5054872;28;20364;-36
2021/11/21 02:25:31;;;;;;;10.32;4.78;;;;;;;;;;5054806;28;20183;-36
2021/11/21 02:27:56;;;;;;;8.63;5.05;;;;;;;;;;5054626;28;20033;-36
2021/11/21 02:30:22;;;;;;;7.60;4.18;;;;;;;;;;5054761;28;20025;-36
2021/11/21 02:32:48;;;;;;;9.05;4.80;;;;;;;;;;5054559;28;20472;-36
2021/11/21 02:35:14;;;;;;;8.05;4.35;;;;;;;;;;5054375;28;20017;-36
2021/11/21 02:37:40;;;;;;;6.25;4.00;;;;;;;;;;5054697;28;20035;-36
2021/11/21 02:40:06;;;;;;;11.40;4.65;;;;;;;;;;5054679;28;20047;-36
2021/11/21 02:42:34;;;;;;;10.30;4.68;;;;;;;;;;5054257;28;20530;-36
2021/11/21 02:44:59;;;;;;;8.13;4.20;;;;;;;;;;5054557;28;20021;-35
2021/11/21 02:47:32;;;;;;;8.23;4.90;;;;;;;;;;5054171;28;20062;-36
2021/11/21 02:49:57;;;;;;;8.20;5.07;;;;;;;;;;5054546;28;20029;-36
2021/11/21 02:52:23;;;;;;;9.27;4.45;;;;;;;;;;5036219;28;20368;-36
2021/11/21 02:54:49;;;;;;;8.57;5.13;;;;;;;;;;5054009;28;20017;-36
2021/11/21 02:57:14;;;;;;;11.25;5.28;;;;;;;;;;5053475;28;20029;-36
2021/11/21 02:59:40;;;;;;;7.68;4.22;;;;;;;;;;5053836;28;20494;-36
2021/11/21 03:02:05;;;;;;;8.38;4.88;;;;;;;;;;5054047;28;20426;-36
2021/11/21 03:04:31;;;;;;;9.85;5.07;;;;;;;;;;5053905;28;20069;-36
2021/11/21 03:06:56;;;;;;;8.02;3.97;;;;;;;;;;5054059;28;20032;-36
2021/11/21 03:09:22;;;;;;;11.10;5.15;;;;;;;;;;5054318;28;20459;-36
2021/11/21 03:11:51;;;;;;;8.23;5.10;;;;;;;;;;5053807;28;20040;-36
2021/11/21 03:14:19;;;;;;;10.90;4.97;;;;;;;;;;5053688;28;20029;-36
2021/11/21 03:16:45;;;;;;;4.35;2.80;;;;;;;;;;5053934;28;20371;-35
2021/11/21 03:19:10;;;;;;;7.75;4.65;;;;;;;;;;5053596;28;20603;-36
2021/11/21 03:21:36;;;;;;;8.40;4.90;;;;;;;;;;5053735;28;20134;-36
2021/11/21 03:24:01;;;;;;;10.35;4.57;;;;;;;;;;5053778;28;20029;-36
2021/11/21 03:26:29;;;;;;;12.88;6.07;;;;;;;;;;5054054;28;20486;-36
2021/11/21 03:28:54;;;;;;;13.38;4.72;;;;;;;;;;5053632;28;20091;-36
2021/11/21 03:31:20;;;;;;;8.75;4.40;;;;;;;;;;5053588;28;20471;-36
2021/11/21 03:33:45;;;;;;;10.43;5.72;;;;;;;;;;5035487;28;20028;-36
2021/11/21 03:36:10;;;;;;;10.75;4.32;;;;;;;;;;5053451;28;20124;-36
2021/11/21 03:38:36;;;;;;;14.43;4.70;;;;;;;;;;5053236;28;20676;-36
2021/11/21 03:41:02;;;;;;;10.07;4.50;;;;;;;;;;5053362;28;20438;-37
2021/11/21 03:43:27;;;;;;;11.77;4.40;;;;;;;;;;5053372;28;20032;-36
2021/11/21 03:45:53;;;;;;;6.55;4.05;;;;;;;;;;5053026;28;20028;-36
2021/11/21 03:48:18;;;;;;;9.57;3.88;;;;;;;;;;5053375;28;20036;-35
2021/11/21 03:50:44;;;;;;;9.10;4.20;;;;;;;;;;5053257;28;20025;-36
2021/11/21 03:53:09;;;;;;;6.72;4.68;;;;;;;;;;5053047;28;20438;-36
2021/11/21 03:55:35;;;;;;;10.15;4.68;;;;;;;;;;5052802;28;20021;-36
2021/11/21 03:58:00;;;;;;;10.40;4.53;;;;;;;;;;5052895;28;20037;-36
2021/11/21 04:00:26;;;;;;;8.65;5.40;;;;;;;;;;5052866;28;20108;-36
2021/11/21 04:02:52;;;;;;;7.30;3.78;;;;;;;;;;5052771;28;20035;-36
2021/11/21 04:05:17;;;;;;;9.18;4.30;;;;;;;;;;5053007;28;20036;-36
2021/11/21 04:07:43;;;;;;;9.63;4.80;;;;;;;;;;5052585;28;20094;-36
2021/11/21 04:10:09;;;;;;;5.68;3.75;;;;;;;;;;5052674;28;20039;-35
2021/11/21 04:12:35;;;;;;;7.30;4.65;;;;;;;;;;5034693;28;20118;-36
2021/11/21 04:15:00;;;;;;;6.78;4.22;;;;;;;;;;5052585;28;20492;-37
2021/11/21 04:17:28;;;;;;;6.70;4.22;;;;;;;;;;5052624;28;20025;-36
2021/11/21 04:19:53;;;;;;;11.23;4.88;;;;;;;;;;5052633;28;20021;-36
2021/11/21 04:22:19;;;;;;;7.57;4.72;;;;;;;;;;5052517;28;20495;-36
2021/11/21 04:24:44;;;;;;;13.75;5.50;;;;;;;;;;5052330;28;20024;-36
2021/11/21 04:27:11;;;;;;;10.85;5.95;;;;;;;;;;5052618;28;20485;-36
2021/11/21 04:29:36;;;;;;;17.73;7.22;;;;;;;;;;5052256;28;20025;-36
2021/11/21 04:32:02;;;;;;;13.35;6.35;;;;;;;;;;5034500;28;20116;-36
2021/11/21 04:34:28;;;;;;;15.38;6.57;;;;;;;;;;5052228;28;20025;-35
2021/11/21 04:36:54;;;;;;;13.30;5.93;;;;;;;;;;5052146;28;20028;-36
2021/11/21 04:39:20;;;;;;;10.68;5.07;;;;;;;;;;5052041;28;20021;-36
2021/11/21 04:41:46;;;;;;;12.00;5.78;;;;;;;;;;5052270;28;20038;-35
2021/11/21 04:44:11;;;;;;;16.10;5.82;;;;;;;;;;5052054;28;20035;-36
2021/11/21 04:46:37;;;;;;;15.50;6.18;;;;;;;;;;5052099;28;20036;-36
2021/11/21 04:49:04;;;;;;;9.90;5.05;;;;;;;;;;5052337;28;20032;-36
2021/11/21 04:51:30;;;;;;;18.02;5.97;;;;;;;;;;5052066;28;20033;-36
2021/11/21 04:53:55;;;;;;;9.43;5.57;;;;;;;;;;5051813;28;20498;-36
2021/11/21 04:56:21;;;;;;;11.13;5.20;;;;;;;;;;5052085;28;20027;-36
2021/11/21 04:58:46;;;;;;;8.88;5.22;;;;;;;;;;5051919;28;20052;-36
2021/11/21 05:01:12;;;;;;;10.52;5.47;;;;;;;;;;5051600;28;20040;-35
2021/11/21 05:03:37;;;;;;;12.10;4.97;;;;;;;;;;5051889;28;20036;-36
2021/11/21 05:06:03;;;;;;;14.35;5.93;;;;;;;;;;5051690;28;20479;-36
2021/11/21 05:08:28;;;;;;;14.98;5.57;;;;;;;;;;5051885;28;20025;-36
2021/11/21 05:10:53;;;;;;;16.85;5.25;;;;;;;;;;5051500;28;20104;-36
2021/11/21 05:13:19;;;;;;;9.55;4.57;;;;;;;;;;5051557;28;20029;-37
2021/11/21 05:15:44;;;;;;;11.02;6.55;;;;;;;;;;5051574;28;20024;-36
2021/11/21 05:18:10;;;;;;;10.55;4.90;;;;;;;;;;5051477;28;20397;-35
2021/11/21 05:20:36;;;;;;;11.18;4.45;;;;;;;;;;5051218;28;20032;-37
2021/11/21 05:23:02;;;;;;;9.70;4.50;;;;;;;;;;5051350;28;20016;-35
2021/11/21 05:25:27;;;;;;;8.70;4.47;;;;;;;;;;5051426;28;20031;-36
2021/11/21 05:27:52;;;;;;;8.65;4.25;;;;;;;;;;5051260;28;20057;-35
2021/11/21 05:30:19;;;;;;;8.93;5.03;;;;;;;;;;5051206;28;20029;-35
2021/11/21 05:32:45;;;;;;;12.80;7.32;;;;;;;;;;5051139;28;20100;-36
2021/11/21 05:35:11;;;;;;;6.80;3.83;;;;;;;;;;5051453;28;20149;-35
2021/11/21 05:37:36;;;;;;;9.60;3.78;;;;;;;;;;5051096;28;20518;-36
2021/11/21 05:40:06;;;;;;;8.38;4.57;;;;;;;;;;5051245;28;20068;-36
2021/11/21 05:42:31;;;;;;;6.07;4.07;;;;;;;;;;5051214;28;20025;-35
2021/11/21 05:44:57;;;;;;;8.88;4.85;;;;;;;;;;5051050;28;20031;-35
2021/11/21 05:47:22;;;;;;;7.43;4.55;;;;;;;;;;5051077;28;20021;-36
2021/11/21 05:49:48;;;;;;;6.07;3.88;;;;;;;;;;5051378;28;20036;-35
2021/11/21 05:52:13;;;;;;;11.05;4.68;;;;;;;;;;5051233;28;20037;-36
2021/11/21 05:54:39;;;;;;;13.07;4.82;;;;;;;;;;5051201;28;20510;-36
2021/11/21 05:57:05;;;;;;;8.18;5.03;;;;;;;;;;5051389;28;20036;-35
2021/11/21 05:59:35;;;;;;;9.65;3.95;;;;;;;;;;5051047;28;20025;-36
2021/11/21 06:02:01;;;;;;;10.02;5.30;;;;;;;;;;5051155;28;20033;-36
2021/11/21 06:04:26;;;;;;;9.00;4.35;;;;;;;;;;5051266;28;20036;-36
2021/11/21 06:06:51;;;;;;;7.47;4.00;;;;;;;;;;5050784;28;20025;-35
2021/11/21 06:09:17;;;;;;;9.75;4.38;;;;;;;;;;5051048;28;20162;-36
2021/11/21 06:11:42;;;;;;;6.57;3.95;;;;;;;;;;5050754;28;20067;-36
2021/11/21 06:14:08;;;;;;;9.55;4.50;;;;;;;;;;5051101;28;20033;-36
2021/11/21 06:16:34;;;;;;;9.45;4.15;;;;;;;;;;5050922;28;20032;-36
2021/11/21 06:18:59;;;;;;;6.35;4.55;;;;;;;;;;5051054;28;20082;-36
2021/11/21 06:21:24;;;;;;;7.28;4.00;;;;;;;;;;5050935;28;20497;-36
2021/11/21 06:23:50;;;;;;;12.50;4.75;;;;;;;;;;5050764;28;20483;-36
2021/11/21 06:26:15;;;;;;;8.52;5.20;;;;;;;;;;5050897;28;20032;-35
2021/11/21 06:28:41;;;;;;;7.82;4.25;;;;;;;;;;5050773;28;20037;-36
2021/11/21 06:31:07;;;;;;;10.90;4.40;;;;;;;;;;5050555;28;20032;-36
2021/11/21 06:33:32;;;;;;;7.43;4.43;;;;;;;;;;5053057;28;20025;-36
2021/11/21 06:35:58;;;;;;;8.90;4.43;;;;;;;;;;5054670;28;20087;-36
2021/11/21 06:38:23;;;;;;;10.00;3.70;;;;;;;;;;5053135;28;20032;-36
2021/11/21 06:40:49;;;;;;;7.70;4.13;;;;;;;;;;5054539;28;20116;-36
2021/11/21 06:43:15;;;;;;;8.60;4.70;;;;;;;;;;5054661;28;20041;-36
2021/11/21 06:45:40;;;;;;;12.82;5.88;;;;;;;;;;5054479;28;20448;-36
2021/11/21 06:48:10;;;;;;;11.25;4.63;;;;;;;;;;5054316;28;20513;-36
2021/11/21 06:50:36;;;;;;;10.88;4.88;;;;;;;;;;5036288;28;20028;-36
2021/11/21 06:53:02;;;;;;;9.27;4.75;;;;;;;;;;5054123;28;20518;-36
2021/11/21 06:55:27;;;;;;;11.15;4.57;;;;;;;;;;5053992;28;20021;-36
2021/11/21 06:57:55;;;;;;;9.75;4.30;;;;;;;;;;5054036;28;20063;-36
2021/11/21 07:00:21;;;;;;;12.65;5.30;;;;;;;;;;5054078;28;20056;-35
2021/11/21 07:02:47;;;;;;;9.30;4.82;;;;;;;;;;5053758;28;20071;-35
2021/11/21 07:05:12;;;;;;;17.20;5.60;;;;;;;;;;5053932;28;20052;-35
2021/11/21 07:07:38;;;;;;;10.60;6.13;;;;;;;;;;5053853;28;20041;-36
2021/11/21 07:10:04;;;;;;;9.13;4.82;;;;;;;;;;5053690;28;20032;-35
2021/11/21 07:12:30;;;;;;;11.27;4.82;;;;;;;;;;5053766;28;20514;-35
2021/11/21 07:14:55;;;;;;;11.93;5.68;;;;;;;;;;5053564;28;20060;-35
2021/11/21 07:17:22;;;;;;;10.00;4.88;;;;;;;;;;5053665;28;20079;-36
2021/11/21 07:19:47;;;;;;;10.38;5.15;;;;;;;;;;5053697;28;20057;-35
2021/11/21 07:22:13;;;;;;;8.00;4.47;;;;;;;;;;5035897;28;20036;-35
2021/11/21 07:24:39;;;;;;;9.82;5.05;;;;;;;;;;5053501;28;20018;-36
2021/11/21 07:27:04;;;;;;;11.05;5.68;;;;;;;;;;5053555;28;20044;-35
2021/11/21 07:29:30;;;;;;;11.20;5.50;;;;;;;;;;5053550;28;20017;-35
2021/11/21 07:31:56;;;;;;;9.95;5.25;;;;;;;;;;5018948;28;20175;-35
2021/11/21 07:34:22;;;;;;;9.88;4.38;;;;;;;;;;5053269;28;20032;-36
2021/11/21 07:36:48;;;;;;;8.70;4.55;;;;;;;;;;5053330;28;20377;-36
2021/11/21 07:39:13;;;;;;;12.95;5.03;;;;;;;;;;5053263;28;20028;-36
2021/11/21 07:41:39;;;;;;;12.93;5.38;;;;;;;;;;5053424;28;20514;-35
2021/11/21 07:44:07;;;;;;;7.90;4.32;;;;;;;;;;5052856;28;20478;-36
2021/11/21 07:46:32;;;;;;;14.35;6.03;;;;;;;;;;5053139;28;20087;-35
2021/11/21 07:48:58;;;;;;;15.23;6.88;;;;;;;;;;5053364;28;20028;-36
2021/11/21 07:51:24;;;;;;;8.95;4.47;;;;;;;;;;5052974;28;20031;-36
2021/11/21 07:53:49;;;;;;;27.52;10.13;;;;;;;;;;5053141;28;20099;-36
2021/11/21 07:56:14;;;;;;;27.60;9.45;;;;;;;;;;5035224;28;20033;-35
2021/11/21 07:58:41;;;;;;;46.05;12.68;;;;;;;;;;5052766;28;20056;-35
2021/11/21 08:01:06;;;;;;;51.63;16.33;;;;;;;;;;5052818;28;20136;-35
2021/11/21 08:03:32;;;;;;;46.42;14.80;;;;;;;;;;5034997;28;20439;-35
2021/11/21 08:05:57;;;;;;;40.85;13.30;;;;;;;;;;5034745;28;20033;-35
2021/11/21 08:08:23;;;;;;;36.00;11.85;;;;;;;;;;5052814;28;20484;-36
2021/11/21 08:10:49;;;;;;;43.30;12.05;;;;;;;;;;5052666;28;20036;-35
2021/11/21 08:13:14;;;;;;;37.47;14.48;;;;;;;;;;5052869;28;20034;-36
2021/11/21 08:15:40;;;;;;;31.40;9.80;;;;;;;;;;5052578;28;20025;-35
2021/11/21 08:18:05;;;;;;;27.25;10.30;;;;;;;;;;5052588;28;20025;-35
2021/11/21 08:20:31;;;;;;;30.42;10.00;;;;;;;;;;5052829;28;20033;-35
2021/11/21 08:22:56;;;;;;;32.92;12.23;;;;;;;;;;5052432;28;20455;-35
2021/11/21 08:25:22;;;;;;;39.25;11.50;;;;;;;;;;5052567;28;20032;-36
2021/11/21 08:27:48;;;;;;;52.95;15.18;;;;;;;;;;5052337;28;20024;-36
2021/11/21 08:30:13;;;;;;;40.58;13.82;;;;;;;;;;5052310;28;20025;-36
2021/11/21 08:32:39;;;;;;;41.45;12.10;;;;;;;;;;5034301;28;20082;-36
2021/11/21 08:35:05;;;;;;;41.92;11.65;;;;;;;;;;5052202;28;20056;-35
2021/11/21 08:37:30;;;;;;;40.00;13.93;;;;;;;;;;5052214;28;20379;-36
2021/11/21 08:39:56;;;;;;;30.30;9.93;;;;;;;;;;5052074;28;20037;-36
2021/11/21 08:42:22;;;;;;;33.75;11.55;;;;;;;;;;5051970;28;20555;-36
2021/11/21 08:44:47;;;;;;;35.97;10.60;;;;;;;;;;5051973;28;20028;-36
2021/11/21 08:47:15;;;;;;;24.35;11.00;;;;;;;;;;5052078;28;20057;-36
2021/11/21 08:49:40;;;;;;;29.70;10.18;;;;;;;;;;5033947;28;20072;-36
2021/11/21 08:52:06;;;;;;;29.65;9.50;;;;;;;;;;5033968;28;20039;-36
2021/11/21 08:54:31;;;;;;;31.10;10.73;;;;;;;;;;5051848;28;20086;-35
2021/11/21 08:56:57;;;;;;;33.05;12.38;;;;;;;;;;5051104;28;20092;-35
2021/11/21 08:59:22;;;;;;;39.17;10.80;;;;;;;;;;5051734;28;20086;-35
2021/11/21 09:01:48;;;;;;;32.15;10.95;;;;;;;;;;5051669;28;20045;-36
2021/11/21 09:04:14;;;;;;;32.33;10.73;;;;;;;;;;5051608;28;20032;-36
2021/11/21 09:06:40;;;;;;;30.70;8.77;;;;;;;;;;5051894;28;20025;-36
2021/11/21 09:09:05;;;;;;;29.30;10.55;;;;;;;;;;5051651;28;20392;-35
2021/11/21 09:11:31;;;;;;;31.48;11.63;;;;;;;;;;5051550;28;20024;-36
2021/11/21 09:13:57;;;;;;;34.60;9.98;;;;;;;;;;5051623;28;20474;-36
2021/11/21 09:16:23;;;;;;;27.48;9.77;;;;;;;;;;5051591;28;20017;-36
2021/11/21 09:18:48;;;;;;;27.45;9.07;;;;;;;;;;5051377;28;20029;-36
2021/11/21 09:21:14;;;;;;;28.65;9.95;;;;;;;;;;5051490;28;20021;-35
2021/11/21 09:23:40;;;;;;;30.38;11.57;;;;;;;;;;5051281;28;20055;-36
2021/11/21 09:26:05;;;;;;;26.77;8.70;;;;;;;;;;5051280;28;20020;-36
2021/11/21 09:28:31;;;;;;;26.90;8.23;;;;;;;;;;5051456;28;20040;-36
2021/11/21 09:30:56;;;;;;;31.15;9.82;;;;;;;;;;5051353;28;20021;-36
2021/11/21 09:33:23;;;;;;;20.38;8.80;;;;;;;;;;5051222;28;20549;-36
2021/11/21 09:35:49;;;;;;;22.25;8.15;;;;;;;;;;5051478;28;20033;-36
2021/11/21 09:38:14;;;;;;;26.20;9.07;;;;;;;;;;5051487;28;20082;-36
2021/11/21 09:40:40;;;;;;;18.88;7.88;;;;;;;;;;5051804;28;20099;-36
2021/11/21 09:43:06;;;;;;;23.83;9.02;;;;;;;;;;5051256;28;20468;-36
2021/11/21 09:45:31;;;;;;;31.73;10.07;;;;;;;;;;5051060;28;20108;-36
2021/11/21 09:47:58;;;;;;;25.98;10.23;;;;;;;;;;5051198;28;20025;-36
2021/11/21 09:50:24;;;;;;;28.23;9.77;;;;;;;;;;5051149;28;20481;-36
2021/11/21 09:52:50;;;;;;;23.23;8.32;;;;;;;;;;5050895;28;20476;-36
2021/11/21 09:55:16;;;;;;;25.88;10.10;;;;;;;;;;5051099;28;20013;-37
2021/11/21 09:57:43;;;;;;;34.83;9.93;;;;;;;;;;5050859;28;20033;-36
2021/11/21 10:00:09;;;;;;;26.25;10.13;;;;;;;;;;5050850;28;20045;-36
2021/11/21 10:02:36;;;;;;;37.05;10.05;;;;;;;;;;5051147;28;20057;-36
2021/11/21 10:05:07;;;;;;;17.73;9.55;;;;;;;;;;5051138;28;20033;-36
2021/11/21 10:07:34;;;;;;;30.08;11.75;;;;;;;;;;5035468;28;20044;-36
2021/11/21 10:10:01;;;;;;;21.13;9.27;;;;;;;;;;5054930;28;20021;-36
2021/11/21 10:12:33;;;;;;;35.60;11.20;;;;;;;;;;5054910;28;20047;-35
2021/11/21 10:14:59;;;;;;;35.80;12.03;;;;;;;;;;5054691;28;20021;-36
2021/11/21 10:17:25;;;;;;;27.80;9.07;;;;;;;;;;5054873;28;20254;-36
2021/11/21 10:20:13;;;;;;;23.50;9.75;;;;;;;;;;5054747;28;20028;-36
2021/11/21 10:22:57;;;;;;;29.35;9.45;;;;;;;;;;5047772;28;20037;-36
2021/11/21 10:25:31;;;;;;;32.05;11.10;;;;;;;;;;5036790;28;20067;-36
2021/11/21 10:28:04;;;;;;;31.38;11.05;;;;;;;;;;5054612;28;20365;-36
2021/11/21 10:30:30;;;;;;;26.13;9.52;;;;;;;;;;5055260;28;20036;-36
2021/11/21 10:33:00;;;;;;;26.55;8.93;;;;;;;;;;5054504;28;20502;-36
2021/11/21 10:35:26;;;;;;;39.90;11.98;;;;;;;;;;5054695;28;20021;-36
2021/11/21 10:37:55;;;;;;;23.77;8.80;;;;;;;;;;5054742;28;20044;-37
2021/11/21 10:40:21;;;;;;;20.67;9.00;;;;;;;;;;5054407;28;20202;-36
2021/11/21 10:42:48;;;;;;;23.02;9.73;;;;;;;;;;5054271;28;20112;-36
2021/11/21 10:45:14;;;;;;;28.42;9.88;;;;;;;;;;5054342;28;20024;-36
2021/11/21 10:47:48;;;;;;;21.00;8.73;;;;;;;;;;5054490;28;20059;-36
2021/11/21 10:50:26;;;;;;;23.98;9.07;;;;;;;;;;5054314;28;20024;-36
2021/11/21 10:52:52;;;;;;;27.88;9.27;;;;;;;;;;5054104;28;20036;-36
2021/11/21 10:55:18;;;;;;;27.55;9.75;;;;;;;;;;5054445;28;20017;-38
2021/11/21 10:57:44;;;;;;;20.50;7.93;;;;;;;;;;5053867;28;20531;-39
2021/11/21 11:00:14;;;;;;;25.80;7.82;;;;;;;;;;5053827;28;20053;-36
2021/11/21 11:02:43;;;;;;;33.35;8.48;;;;;;;;;;5053928;28;20036;-36
2021/11/21 11:05:09;;;;;;;21.20;8.35;;;;;;;;;;5054159;28;20064;-36
2021/11/21 11:07:40;;;;;;;26.83;9.60;;;;;;;;;;5053986;28;20037;-36
2021/11/21 11:10:07;;;;;;;26.98;11.20;;;;;;;;;;5054121;28;20056;-37
2021/11/21 11:12:33;;;;;;;22.30;7.47;;;;;;;;;;5054045;28;20371;-35
2021/11/21 11:14:59;;;;;;;20.40;8.50;;;;;;;;;;5053578;28;20234;-36
2021/11/21 11:17:25;;;;;;;21.83;8.18;;;;;;;;;;5054063;28;20028;-36
2021/11/21 11:19:55;;;;;;;30.73;9.45;;;;;;;;;;5052806;28;20029;-36
2021/11/21 11:22:20;;;;;;;25.98;8.98;;;;;;;;;;5053695;28;20411;-36
2021/11/21 11:24:46;;;;;;;37.13;10.48;;;;;;;;;;5053429;28;20089;-36
2021/11/21 11:27:14;;;;;;;34.47;11.00;;;;;;;;;;5053512;28;20033;-36
2021/11/21 11:29:43;;;;;;;29.15;10.10;;;;;;;;;;5053679;28;20029;-36
2021/11/21 11:32:28;;;;;;;24.92;8.82;;;;;;;;;;5053601;28;20040;-36
2021/11/21 11:34:55;;;;;;;19.38;7.85;;;;;;;;;;5053290;28;20033;-36
2021/11/21 11:37:39;;;;;;;21.52;8.25;;;;;;;;;;5053350;28;20035;-36
2021/11/21 11:40:05;;;;;;;25.83;8.52;;;;;;;;;;5053216;28;20033;-38
2021/11/21 11:42:35;;;;;;;25.67;9.13;;;;;;;;;;5035757;28;20067;-36
2021/11/21 11:45:02;;;;;;;35.85;10.07;;;;;;;;;;5053187;28;20041;-36
2021/11/21 11:47:28;;;;;;;28.55;10.43;;;;;;;;;;5053348;28;20619;-36
2021/11/21 11:49:54;;;;;;;22.05;8.02;;;;;;;;;;5053385;28;20111;-36
2021/11/21 11:52:58;;;;;;;25.05;9.23;;;;;;;;;;5053065;28;20495;-36
2021/11/21 11:55:26;;;;;;;18.63;8.60;;;;;;;;;;5010979;28;20041;-36
2021/11/21 11:57:52;;;;;;;26.13;7.43;;;;;;;;;;5010759;28;20093;-36
2021/11/21 12:00:27;;;;;;;22.30;8.88;;;;;;;;;;5030955;28;20470;-36
2021/11/21 12:02:55;;;;;;;19.55;8.52;;;;;;;;;;5034797;28;20033;-36
2021/11/21 12:05:28;;;;;;;30.27;9.15;;;;;;;;;;5053172;28;20017;-36
2021/11/21 12:08:10;;;;;;;23.55;8.30;;;;;;;;;;5052627;28;20029;-36
2021/11/21 12:10:52;;;;;;;22.00;9.40;;;;;;;;;;5053126;28;20078;-37
2021/11/21 12:13:28;;;;;;;20.15;7.22;;;;;;;;;;5052681;28;20041;-36
2021/11/21 12:15:55;;;;;;;22.45;6.70;;;;;;;;;;5052404;28;20029;-36
2021/11/21 12:18:22;;;;;;;21.55;8.23;;;;;;;;;;5052648;28;20017;-36
2021/11/21 12:20:55;;;;;;;15.18;7.68;;;;;;;;;;5052785;28;20037;-36
2021/11/21 12:23:40;;;;;;;22.05;9.43;;;;;;;;;;5052463;28;20068;-36
2021/11/21 12:26:24;;;;;;;22.30;8.50;;;;;;;;;;5052462;28;20501;-36
2021/11/21 12:29:08;;;;;;;26.58;8.90;;;;;;;;;;5052335;28;20036;-36
2021/11/21 12:31:34;;;;;;;26.75;7.70;;;;;;;;;;5051146;28;20044;-36
2021/11/21 12:34:18;;;;;;;23.05;8.23;;;;;;;;;;5052199;28;20032;-36
2021/11/21 12:37:02;;;;;;;29.15;9.85;;;;;;;;;;5052117;28;20033;-36
2021/11/21 12:39:29;;;;;;;28.17;9.32;;;;;;;;;;5052170;28;20052;-36
2021/11/21 12:42:02;;;;;;;23.20;8.95;;;;;;;;;;5052102;28;20021;-36
2021/11/21 12:44:27;;;;;;;22.17;9.45;;;;;;;;;;5052179;28;20060;-36
2021/11/21 12:47:00;;;;;;;23.38;8.50;;;;;;;;;;5052303;28;20422;-36
2021/11/21 12:49:25;;;;;;;30.02;8.55;;;;;;;;;;5052048;28;20472;-35
2021/11/21 12:52:02;;;;;;;20.58;9.65;;;;;;;;;;5051796;28;20078;-36
2021/11/21 12:54:28;;;;;;;29.92;9.98;;;;;;;;;;5051815;28;20392;-35
2021/11/21 12:56:53;;;;;;;29.15;10.20;;;;;;;;;;5051826;28;20021;-36
2021/11/21 12:59:19;;;;;;;21.20;9.75;;;;;;;;;;5051761;28;20094;-36
2021/11/21 13:01:46;;;;;;;31.23;10.18;;;;;;;;;;5051536;28;20056;-35
2021/11/21 13:04:11;;;;;;;25.65;9.65;;;;;;;;;;5051804;28;20056;-35
2021/11/21 13:06:37;;;;;;;28.10;8.68;;;;;;;;;;5051731;28;20122;-36
2021/11/21 13:09:03;;;;;;;29.55;9.20;;;;;;;;;;5051612;28;20475;-36
2021/11/21 13:11:28;;;;;;;25.25;8.23;;;;;;;;;;5051566;28;20054;-36
2021/11/21 13:13:57;;;;;;;40.50;9.80;;;;;;;;;;5051402;28;20037;-36
2021/11/21 13:16:22;;;;;;;16.50;8.88;;;;;;;;;;5051591;28;20479;-36
2021/11/21 13:18:49;;;;;;;30.83;9.60;;;;;;;;;;5051409;28;20053;-36
2021/11/21 13:21:32;;;;;;;27.35;9.25;;;;;;;;;;5051497;28;20028;-36
2021/11/21 13:23:59;;;;;;;32.50;9.80;;;;;;;;;;5051341;28;20108;-36
2021/11/21 13:26:25;;;;;;;30.33;10.02;;;;;;;;;;5051377;28;20108;-36
2021/11/21 13:28:55;;;;;;;28.38;10.45;;;;;;;;;;5033498;28;20119;-36
2021/11/21 13:31:23;;;;;;;37.72;11.65;;;;;;;;;;5051296;28;20111;-35
2021/11/21 13:33:58;;;;;;;33.17;10.23;;;;;;;;;;5051150;28;20025;-36
2021/11/21 13:36:23;;;;;;;40.17;11.15;;;;;;;;;;5051503;28;20029;-36
2021/11/21 13:38:51;;;;;;;31.00;9.77;;;;;;;;;;5051242;28;20028;-35
2021/11/21 13:41:18;;;;;;;33.55;12.43;;;;;;;;;;5050788;28;20119;-36
2021/11/21 13:43:49;;;;;;;31.23;12.02;;;;;;;;;;5033412;28;20382;-36
2021/11/21 13:46:16;;;;;;;39.95;12.32;;;;;;;;;;5050008;28;20375;-38
2021/11/21 13:48:43;;;;;;;38.25;11.55;;;;;;;;;;5033399;28;20093;-36
2021/11/21 13:51:29;;;;;;;33.33;11.50;;;;;;;;;;5051507;28;20033;-36
2021/11/21 13:53:55;;;;;;;28.42;10.15;;;;;;;;;;5050788;28;20048;-36
2021/11/21 13:56:21;;;;;;;31.30;10.95;;;;;;;;;;5051168;28;20379;-36
2021/11/21 13:58:48;;;;;;;31.38;11.30;;;;;;;;;;5033178;28;20032;-35
2021/11/21 14:01:23;;;;;;;31.50;10.82;;;;;;;;;;5050934;28;20047;-36
2021/11/21 14:03:53;;;;;;;27.30;9.90;;;;;;;;;;5050756;28;20471;-35
2021/11/21 14:06:20;;;;;;;31.80;10.27;;;;;;;;;;5051104;28;20090;-35
2021/11/21 14:08:47;;;;;;;37.70;10.23;;;;;;;;;;5050763;28;20033;-36
2021/11/21 14:11:13;;;;;;;33.58;11.00;;;;;;;;;;5051092;28;20102;-36
2021/11/21 14:13:40;;;;;;;32.55;10.90;;;;;;;;;;5050878;28;20040;-36
2021/11/21 14:16:06;;;;;;;28.30;9.43;;;;;;;;;;5050723;28;20021;-36
2021/11/21 14:18:36;;;;;;;34.78;10.50;;;;;;;;;;5051006;28;20036;-36
2021/11/21 14:21:05;;;;;;;22.60;9.18;;;;;;;;;;5050751;28;20031;-36
2021/11/21 14:23:32;;;;;;;27.42;10.00;;;;;;;;;;5050863;28;20443;-36
2021/11/21 14:25:59;;;;;;;33.47;12.48;;;;;;;;;;5032927;28;20449;-36
2021/11/21 14:28:29;;;;;;;28.70;10.07;;;;;;;;;;5050829;28;20062;-35
2021/11/21 14:30:56;;;;;;;27.75;7.78;;;;;;;;;;5050600;28;20040;-36